sensor_id;sensor_type;location;lat;lon;timestamp;P1;durP1;ratioP1;P2;durP2;ratioP2
59109;SDS011;44895;47.438;18.978;2023-04-25T00:02:44;3.35;;;0.98;;
59109;SDS011;44895;47.438;18.978;2023-04-25T00:05:49;4.25;;;1.60;;
59109;SDS011;44895;47.438;18.978;2023-04-25T00:08:54;1.67;;;0.85;;
59109;SDS011;44895;47.438;18.978;2023-04-25T00:12:00;3.10;;;1.20;;
59109;SDS011;44895;47.438;18.978;2023-04-25T00:15:04;3.30;;;1.67;;
59109;SDS011;44895;47.438;18.978;2023-04-25T00:18:08;5.00;;;1.23;;
59109;SDS011;44895;47.438;18.978;2023-04-25T00:21:14;2.00;;;0.95;;
59109;SDS011;44895;47.438;18.978;2023-04-25T00:24:20;4.03;;;1.60;;
59109;SDS011;44895;47.438;18.978;2023-04-25T00:27:24;2.33;;;1.00;;
59109;SDS011;44895;47.438;18.978;2023-04-25T00:30:28;3.17;;;1.13;;
59109;SDS011;44895;47.438;18.978;2023-04-25T00:33:32;4.55;;;1.75;;
59109;SDS011;44895;47.438;18.978;2023-04-25T00:36:35;3.50;;;1.35;;
59109;SDS011;44895;47.438;18.978;2023-04-25T00:39:39;3.42;;;1.30;;
59109;SDS011;44895;47.438;18.978;2023-04-25T00:42:43;7.45;;;1.63;;
59109;SDS011;44895;47.438;18.978;2023-04-25T00:45:48;4.70;;;1.10;;
59109;SDS011;44895;47.438;18.978;2023-04-25T00:48:55;4.07;;;1.70;;
59109;SDS011;44895;47.438;18.978;2023-04-25T00:51:58;4.78;;;1.75;;
59109;SDS011;44895;47.438;18.978;2023-04-25T00:55:02;3.72;;;1.45;;
59109;SDS011;44895;47.438;18.978;2023-04-25T00:58:06;8.23;;;1.30;;
59109;SDS011;44895;47.438;18.978;2023-04-25T01:01:10;4.63;;;1.85;;
59109;SDS011;44895;47.438;18.978;2023-04-25T01:04:16;5.85;;;2.00;;
59109;SDS011;44895;47.438;18.978;2023-04-25T01:07:20;3.65;;;1.50;;
59109;SDS011;44895;47.438;18.978;2023-04-25T01:10:24;4.57;;;1.90;;
59109;SDS011;44895;47.438;18.978;2023-04-25T01:13:28;4.18;;;1.50;;
59109;SDS011;44895;47.438;18.978;2023-04-25T01:16:32;5.45;;;1.90;;
59109;SDS011;44895;47.438;18.978;2023-04-25T01:19:36;5.45;;;2.47;;
59109;SDS011;44895;47.438;18.978;2023-04-25T01:22:40;4.78;;;2.00;;
59109;SDS011;44895;47.438;18.978;2023-04-25T01:25:44;3.97;;;1.67;;
59109;SDS011;44895;47.438;18.978;2023-04-25T01:28:48;4.80;;;2.00;;
59109;SDS011;44895;47.438;18.978;2023-04-25T01:31:53;7.38;;;2.30;;
59109;SDS011;44895;47.438;18.978;2023-04-25T01:34:57;4.35;;;2.00;;
59109;SDS011;44895;47.438;18.978;2023-04-25T01:38:03;7.90;;;2.38;;
59109;SDS011;44895;47.438;18.978;2023-04-25T01:41:07;5.57;;;2.17;;
59109;SDS011;44895;47.438;18.978;2023-04-25T01:44:10;6.05;;;2.35;;
59109;SDS011;44895;47.438;18.978;2023-04-25T01:47:14;4.80;;;1.88;;
59109;SDS011;44895;47.438;18.978;2023-04-25T01:50:18;5.60;;;2.35;;
59109;SDS011;44895;47.438;18.978;2023-04-25T01:53:23;4.82;;;2.05;;
59109;SDS011;44895;47.438;18.978;2023-04-25T01:56:30;6.05;;;2.30;;
59109;SDS011;44895;47.438;18.978;2023-04-25T01:59:36;4.28;;;1.90;;
59109;SDS011;44895;47.438;18.978;2023-04-25T02:03:00;5.03;;;2.05;;
59109;SDS011;44895;47.438;18.978;2023-04-25T02:06:08;4.75;;;2.17;;
59109;SDS011;44895;47.438;18.978;2023-04-25T02:09:15;5.13;;;2.28;;
59109;SDS011;44895;47.438;18.978;2023-04-25T02:12:23;11.02;;;2.65;;
59109;SDS011;44895;47.438;18.978;2023-04-25T02:15:53;6.95;;;2.83;;
59109;SDS011;44895;47.438;18.978;2023-04-25T02:18:57;5.60;;;2.03;;
59109;SDS011;44895;47.438;18.978;2023-04-25T02:22:03;4.78;;;2.20;;
59109;SDS011;44895;47.438;18.978;2023-04-25T02:25:07;6.45;;;2.95;;
59109;SDS011;44895;47.438;18.978;2023-04-25T02:28:13;4.82;;;2.00;;
59109;SDS011;44895;47.438;18.978;2023-04-25T02:31:17;4.47;;;2.30;;
59109;SDS011;44895;47.438;18.978;2023-04-25T02:34:20;5.78;;;2.25;;
59109;SDS011;44895;47.438;18.978;2023-04-25T02:37:24;5.57;;;2.58;;
59109;SDS011;44895;47.438;18.978;2023-04-25T02:40:28;5.68;;;1.92;;
59109;SDS011;44895;47.438;18.978;2023-04-25T02:43:31;5.75;;;2.22;;
59109;SDS011;44895;47.438;18.978;2023-04-25T02:46:35;4.70;;;1.92;;
59109;SDS011;44895;47.438;18.978;2023-04-25T02:49:39;6.07;;;2.50;;
59109;SDS011;44895;47.438;18.978;2023-04-25T02:52:43;4.88;;;2.25;;
59109;SDS011;44895;47.438;18.978;2023-04-25T02:55:28;4.45;;;1.80;;
59109;SDS011;44895;47.438;18.978;2023-04-25T02:58:33;6.65;;;2.35;;
59109;SDS011;44895;47.438;18.978;2023-04-25T03:01:37;6.20;;;2.80;;
59109;SDS011;44895;47.438;18.978;2023-04-25T03:04:41;5.00;;;2.03;;
59109;SDS011;44895;47.438;18.978;2023-04-25T03:07:44;6.18;;;2.50;;
59109;SDS011;44895;47.438;18.978;2023-04-25T03:10:48;5.53;;;2.28;;
59109;SDS011;44895;47.438;18.978;2023-04-25T03:13:54;4.72;;;2.33;;
59109;SDS011;44895;47.438;18.978;2023-04-25T03:16:58;5.75;;;2.25;;
59109;SDS011;44895;47.438;18.978;2023-04-25T03:20:02;6.47;;;2.83;;
59109;SDS011;44895;47.438;18.978;2023-04-25T03:23:08;6.40;;;3.00;;
59109;SDS011;44895;47.438;18.978;2023-04-25T03:26:11;7.40;;;2.95;;
59109;SDS011;44895;47.438;18.978;2023-04-25T03:29:15;5.97;;;2.35;;
59109;SDS011;44895;47.438;18.978;2023-04-25T03:32:20;9.25;;;3.20;;
59109;SDS011;44895;47.438;18.978;2023-04-25T03:35:24;4.40;;;2.40;;
59109;SDS011;44895;47.438;18.978;2023-04-25T03:38:28;7.05;;;2.15;;
59109;SDS011;44895;47.438;18.978;2023-04-25T03:41:32;6.35;;;2.17;;
59109;SDS011;44895;47.438;18.978;2023-04-25T03:44:41;5.55;;;2.60;;
59109;SDS011;44895;47.438;18.978;2023-04-25T03:47:45;5.55;;;2.42;;
59109;SDS011;44895;47.438;18.978;2023-04-25T03:50:48;4.72;;;2.35;;
59109;SDS011;44895;47.438;18.978;2023-04-25T03:53:52;6.85;;;2.22;;
59109;SDS011;44895;47.438;18.978;2023-04-25T03:56:56;5.60;;;2.75;;
59109;SDS011;44895;47.438;18.978;2023-04-25T04:00:03;7.18;;;3.22;;
59109;SDS011;44895;47.438;18.978;2023-04-25T04:03:16;6.53;;;2.45;;
59109;SDS011;44895;47.438;18.978;2023-04-25T04:06:20;6.22;;;2.58;;
59109;SDS011;44895;47.438;18.978;2023-04-25T04:12:33;6.13;;;2.25;;
59109;SDS011;44895;47.438;18.978;2023-04-25T04:15:38;4.72;;;2.30;;
59109;SDS011;44895;47.438;18.978;2023-04-25T04:18:42;6.05;;;2.78;;
59109;SDS011;44895;47.438;18.978;2023-04-25T04:21:45;5.72;;;2.63;;
59109;SDS011;44895;47.438;18.978;2023-04-25T04:24:49;6.70;;;2.78;;
59109;SDS011;44895;47.438;18.978;2023-04-25T04:27:58;6.05;;;2.58;;
59109;SDS011;44895;47.438;18.978;2023-04-25T04:31:21;5.80;;;2.65;;
59109;SDS011;44895;47.438;18.978;2023-04-25T04:34:25;6.03;;;2.63;;
59109;SDS011;44895;47.438;18.978;2023-04-25T04:37:31;5.00;;;2.67;;
59109;SDS011;44895;47.438;18.978;2023-04-25T04:40:36;10.00;;;3.13;;
59109;SDS011;44895;47.438;18.978;2023-04-25T04:44:09;6.60;;;3.30;;
59109;SDS011;44895;47.438;18.978;2023-04-25T04:47:26;7.18;;;2.92;;
59109;SDS011;44895;47.438;18.978;2023-04-25T04:50:54;6.47;;;3.28;;
59109;SDS011;44895;47.438;18.978;2023-04-25T04:54:21;8.40;;;2.87;;
59109;SDS011;44895;47.438;18.978;2023-04-25T04:57:48;5.20;;;2.35;;
59109;SDS011;44895;47.438;18.978;2023-04-25T05:01:15;9.57;;;4.07;;
59109;SDS011;44895;47.438;18.978;2023-04-25T05:04:44;7.78;;;3.92;;
59109;SDS011;44895;47.438;18.978;2023-04-25T05:07:57;7.25;;;2.67;;
59109;SDS011;44895;47.438;18.978;2023-04-25T05:11:29;7.60;;;2.85;;
59109;SDS011;44895;47.438;18.978;2023-04-25T05:15:16;8.98;;;2.92;;
59109;SDS011;44895;47.438;18.978;2023-04-25T05:18:36;7.72;;;3.83;;
59109;SDS011;44895;47.438;18.978;2023-04-25T05:21:52;6.40;;;3.03;;
59109;SDS011;44895;47.438;18.978;2023-04-25T05:25:16;6.95;;;3.35;;
59109;SDS011;44895;47.438;18.978;2023-04-25T05:28:26;6.90;;;3.17;;
59109;SDS011;44895;47.438;18.978;2023-04-25T05:31:45;7.05;;;2.97;;
59109;SDS011;44895;47.438;18.978;2023-04-25T05:34:52;8.23;;;3.70;;
59109;SDS011;44895;47.438;18.978;2023-04-25T05:38:16;8.18;;;3.50;;
59109;SDS011;44895;47.438;18.978;2023-04-25T05:41:40;7.47;;;3.30;;
59109;SDS011;44895;47.438;18.978;2023-04-25T05:45:05;6.90;;;3.08;;
59109;SDS011;44895;47.438;18.978;2023-04-25T05:48:16;7.82;;;2.92;;
59109;SDS011;44895;47.438;18.978;2023-04-25T05:51:38;9.98;;;3.85;;
59109;SDS011;44895;47.438;18.978;2023-04-25T05:54:49;6.90;;;3.63;;
59109;SDS011;44895;47.438;18.978;2023-04-25T05:57:53;6.95;;;3.38;;
59109;SDS011;44895;47.438;18.978;2023-04-25T06:00:57;6.18;;;3.20;;
59109;SDS011;44895;47.438;18.978;2023-04-25T06:04:01;6.78;;;3.42;;
59109;SDS011;44895;47.438;18.978;2023-04-25T06:07:04;8.55;;;4.28;;
59109;SDS011;44895;47.438;18.978;2023-04-25T06:10:09;8.95;;;4.28;;
59109;SDS011;44895;47.438;18.978;2023-04-25T06:13:13;10.93;;;4.82;;
59109;SDS011;44895;47.438;18.978;2023-04-25T06:16:16;7.47;;;3.45;;
59109;SDS011;44895;47.438;18.978;2023-04-25T06:19:20;6.97;;;3.35;;
59109;SDS011;44895;47.438;18.978;2023-04-25T06:22:24;6.18;;;3.22;;
59109;SDS011;44895;47.438;18.978;2023-04-25T06:25:28;7.95;;;4.50;;
59109;SDS011;44895;47.438;18.978;2023-04-25T06:28:32;6.80;;;3.47;;
59109;SDS011;44895;47.438;18.978;2023-04-25T06:31:36;8.45;;;3.80;;
59109;SDS011;44895;47.438;18.978;2023-04-25T06:34:40;7.63;;;3.55;;
59109;SDS011;44895;47.438;18.978;2023-04-25T06:37:44;6.95;;;3.47;;
59109;SDS011;44895;47.438;18.978;2023-04-25T06:40:48;6.75;;;3.00;;
59109;SDS011;44895;47.438;18.978;2023-04-25T06:43:53;7.13;;;3.63;;
59109;SDS011;44895;47.438;18.978;2023-04-25T06:47:10;6.85;;;3.60;;
59109;SDS011;44895;47.438;18.978;2023-04-25T06:50:13;6.65;;;3.17;;
59109;SDS011;44895;47.438;18.978;2023-04-25T06:53:17;7.15;;;3.95;;
59109;SDS011;44895;47.438;18.978;2023-04-25T06:56:25;7.80;;;3.58;;
59109;SDS011;44895;47.438;18.978;2023-04-25T06:59:42;7.30;;;3.88;;
59109;SDS011;44895;47.438;18.978;2023-04-25T07:02:46;8.80;;;4.35;;
59109;SDS011;44895;47.438;18.978;2023-04-25T07:05:50;7.30;;;3.95;;
59109;SDS011;44895;47.438;18.978;2023-04-25T07:08:55;7.72;;;4.18;;
59109;SDS011;44895;47.438;18.978;2023-04-25T07:12:00;7.13;;;3.70;;
59109;SDS011;44895;47.438;18.978;2023-04-25T07:15:06;7.85;;;4.40;;
59109;SDS011;44895;47.438;18.978;2023-04-25T07:18:13;7.33;;;4.17;;
59109;SDS011;44895;47.438;18.978;2023-04-25T07:21:17;8.93;;;3.85;;
59109;SDS011;44895;47.438;18.978;2023-04-25T07:24:22;6.85;;;3.42;;
59109;SDS011;44895;47.438;18.978;2023-04-25T07:27:27;6.80;;;3.58;;
59109;SDS011;44895;47.438;18.978;2023-04-25T07:30:37;10.18;;;3.95;;
59109;SDS011;44895;47.438;18.978;2023-04-25T07:33:41;7.05;;;3.28;;
59109;SDS011;44895;47.438;18.978;2023-04-25T07:36:44;6.03;;;3.10;;
59109;SDS011;44895;47.438;18.978;2023-04-25T07:39:49;6.40;;;3.15;;
59109;SDS011;44895;47.438;18.978;2023-04-25T07:42:53;6.85;;;3.35;;
59109;SDS011;44895;47.438;18.978;2023-04-25T07:46:04;9.23;;;3.75;;
59109;SDS011;44895;47.438;18.978;2023-04-25T07:49:10;6.18;;;3.03;;
59109;SDS011;44895;47.438;18.978;2023-04-25T07:52:15;7.60;;;3.83;;
59109;SDS011;44895;47.438;18.978;2023-04-25T07:55:25;6.80;;;2.72;;
59109;SDS011;44895;47.438;18.978;2023-04-25T07:58:44;6.63;;;3.15;;
59109;SDS011;44895;47.438;18.978;2023-04-25T08:01:50;6.07;;;2.97;;
59109;SDS011;44895;47.438;18.978;2023-04-25T08:04:56;6.93;;;3.20;;
59109;SDS011;44895;47.438;18.978;2023-04-25T08:07:59;9.18;;;3.60;;
59109;SDS011;44895;47.438;18.978;2023-04-25T08:11:04;6.97;;;3.60;;
59109;SDS011;44895;47.438;18.978;2023-04-25T08:14:08;7.25;;;3.67;;
59109;SDS011;44895;47.438;18.978;2023-04-25T08:17:14;6.85;;;3.40;;
59109;SDS011;44895;47.438;18.978;2023-04-25T08:20:19;6.55;;;2.78;;
59109;SDS011;44895;47.438;18.978;2023-04-25T08:23:23;6.60;;;3.10;;
59109;SDS011;44895;47.438;18.978;2023-04-25T08:26:38;6.40;;;3.05;;
59109;SDS011;44895;47.438;18.978;2023-04-25T08:29:44;6.63;;;3.13;;
59109;SDS011;44895;47.438;18.978;2023-04-25T08:32:48;6.75;;;3.15;;
59109;SDS011;44895;47.438;18.978;2023-04-25T08:36:15;5.67;;;2.73;;
59109;SDS011;44895;47.438;18.978;2023-04-25T08:39:19;5.75;;;2.90;;
59109;SDS011;44895;47.438;18.978;2023-04-25T08:42:44;6.10;;;3.15;;
59109;SDS011;44895;47.438;18.978;2023-04-25T08:45:51;7.28;;;3.00;;
59109;SDS011;44895;47.438;18.978;2023-04-25T08:49:20;8.43;;;3.78;;
59109;SDS011;44895;47.438;18.978;2023-04-25T08:52:24;6.82;;;3.65;;
59109;SDS011;44895;47.438;18.978;2023-04-25T08:55:31;7.40;;;3.47;;
59109;SDS011;44895;47.438;18.978;2023-04-25T08:58:36;8.55;;;4.13;;
59109;SDS011;44895;47.438;18.978;2023-04-25T09:01:40;5.93;;;2.65;;
59109;SDS011;44895;47.438;18.978;2023-04-25T09:04:44;7.60;;;3.35;;
59109;SDS011;44895;47.438;18.978;2023-04-25T09:07:48;7.68;;;3.17;;
59109;SDS011;44895;47.438;18.978;2023-04-25T09:10:52;8.25;;;3.83;;
59109;SDS011;44895;47.438;18.978;2023-04-25T09:14:16;5.65;;;2.58;;
59109;SDS011;44895;47.438;18.978;2023-04-25T09:17:43;9.48;;;3.50;;
59109;SDS011;44895;47.438;18.978;2023-04-25T09:20:49;6.95;;;3.42;;
59109;SDS011;44895;47.438;18.978;2023-04-25T09:23:56;6.90;;;3.10;;
59109;SDS011;44895;47.438;18.978;2023-04-25T09:27:20;5.50;;;2.67;;
59109;SDS011;44895;47.438;18.978;2023-04-25T09:30:30;7.15;;;3.45;;
59109;SDS011;44895;47.438;18.978;2023-04-25T09:33:43;6.18;;;2.38;;
59109;SDS011;44895;47.438;18.978;2023-04-25T09:36:47;5.03;;;2.45;;
59109;SDS011;44895;47.438;18.978;2023-04-25T09:39:54;6.47;;;2.83;;
59109;SDS011;44895;47.438;18.978;2023-04-25T09:43:19;6.13;;;2.28;;
59109;SDS011;44895;47.438;18.978;2023-04-25T09:46:32;7.05;;;2.10;;
59109;SDS011;44895;47.438;18.978;2023-04-25T09:49:39;4.78;;;2.13;;
59109;SDS011;44895;47.438;18.978;2023-04-25T09:53:02;5.68;;;3.63;;
59109;SDS011;44895;47.438;18.978;2023-04-25T09:56:11;7.40;;;2.97;;
59109;SDS011;44895;47.438;18.978;2023-04-25T09:59:15;4.72;;;1.98;;
59109;SDS011;44895;47.438;18.978;2023-04-25T10:02:20;5.32;;;2.35;;
59109;SDS011;44895;47.438;18.978;2023-04-25T10:05:29;4.07;;;1.73;;
59109;SDS011;44895;47.438;18.978;2023-04-25T10:08:36;3.30;;;1.45;;
59109;SDS011;44895;47.438;18.978;2023-04-25T10:11:40;2.75;;;1.20;;
59109;SDS011;44895;47.438;18.978;2023-04-25T10:14:44;5.05;;;1.90;;
59109;SDS011;44895;47.438;18.978;2023-04-25T10:17:49;4.00;;;1.77;;
59109;SDS011;44895;47.438;18.978;2023-04-25T10:21:04;3.85;;;1.90;;
59109;SDS011;44895;47.438;18.978;2023-04-25T10:24:09;6.18;;;1.30;;
59109;SDS011;44895;47.438;18.978;2023-04-25T10:27:13;3.58;;;1.35;;
59109;SDS011;44895;47.438;18.978;2023-04-25T10:30:18;2.72;;;1.20;;
59109;SDS011;44895;47.438;18.978;2023-04-25T10:33:21;3.60;;;1.48;;
59109;SDS011;44895;47.438;18.978;2023-04-25T10:36:35;2.60;;;1.13;;
59109;SDS011;44895;47.438;18.978;2023-04-25T10:39:40;2.97;;;1.15;;
59109;SDS011;44895;47.438;18.978;2023-04-25T10:42:45;2.05;;;0.70;;
59109;SDS011;44895;47.438;18.978;2023-04-25T10:45:52;2.90;;;1.17;;
59109;SDS011;44895;47.438;18.978;2023-04-25T10:48:57;2.60;;;1.02;;
59109;SDS011;44895;47.438;18.978;2023-04-25T10:52:11;1.40;;;0.73;;
59109;SDS011;44895;47.438;18.978;2023-04-25T10:55:15;0.98;;;0.55;;
59109;SDS011;44895;47.438;18.978;2023-04-25T10:58:21;1.33;;;0.55;;
59109;SDS011;44895;47.438;18.978;2023-04-25T11:01:25;1.15;;;0.70;;
59109;SDS011;44895;47.438;18.978;2023-04-25T11:04:33;2.88;;;0.68;;
59109;SDS011;44895;47.438;18.978;2023-04-25T11:07:37;1.80;;;0.82;;
59109;SDS011;44895;47.438;18.978;2023-04-25T11:10:47;1.13;;;0.40;;
59109;SDS011;44895;47.438;18.978;2023-04-25T11:13:51;2.28;;;0.57;;
59109;SDS011;44895;47.438;18.978;2023-04-25T11:16:58;0.93;;;0.50;;
59109;SDS011;44895;47.438;18.978;2023-04-25T11:20:04;1.33;;;0.50;;
59109;SDS011;44895;47.438;18.978;2023-04-25T11:23:15;0.88;;;0.57;;
59109;SDS011;44895;47.438;18.978;2023-04-25T11:26:19;1.02;;;0.60;;
59109;SDS011;44895;47.438;18.978;2023-04-25T11:29:26;2.28;;;0.88;;
59109;SDS011;44895;47.438;18.978;2023-04-25T11:32:30;1.47;;;0.57;;
59109;SDS011;44895;47.438;18.978;2023-04-25T11:35:34;2.85;;;0.85;;
59109;SDS011;44895;47.438;18.978;2023-04-25T11:38:38;1.30;;;0.63;;
59109;SDS011;44895;47.438;18.978;2023-04-25T11:41:42;21.88;;;1.27;;
59109;SDS011;44895;47.438;18.978;2023-04-25T11:44:45;1.63;;;0.55;;
59109;SDS011;44895;47.438;18.978;2023-04-25T11:47:49;1.38;;;0.60;;
59109;SDS011;44895;47.438;18.978;2023-04-25T11:50:53;2.08;;;0.60;;
59109;SDS011;44895;47.438;18.978;2023-04-25T11:53:57;2.08;;;0.52;;
59109;SDS011;44895;47.438;18.978;2023-04-25T11:57:01;1.42;;;0.60;;
59109;SDS011;44895;47.438;18.978;2023-04-25T12:00:07;3.17;;;0.47;;
59109;SDS011;44895;47.438;18.978;2023-04-25T12:03:18;1.95;;;0.70;;
59109;SDS011;44895;47.438;18.978;2023-04-25T12:06:26;1.77;;;0.75;;
59109;SDS011;44895;47.438;18.978;2023-04-25T12:09:32;2.40;;;1.00;;
59109;SDS011;44895;47.438;18.978;2023-04-25T12:12:36;2.47;;;0.93;;
59109;SDS011;44895;47.438;18.978;2023-04-25T12:15:41;2.55;;;1.05;;
59109;SDS011;44895;47.438;18.978;2023-04-25T12:18:44;3.20;;;0.95;;
59109;SDS011;44895;47.438;18.978;2023-04-25T12:21:48;7.60;;;2.92;;
59109;SDS011;44895;47.438;18.978;2023-04-25T12:24:52;5.65;;;1.92;;
59109;SDS011;44895;47.438;18.978;2023-04-25T12:28:08;3.42;;;1.08;;
59109;SDS011;44895;47.438;18.978;2023-04-25T12:31:16;2.75;;;0.90;;
59109;SDS011;44895;47.438;18.978;2023-04-25T12:34:20;4.65;;;1.20;;
59109;SDS011;44895;47.438;18.978;2023-04-25T12:37:24;3.58;;;1.30;;
59109;SDS011;44895;47.438;18.978;2023-04-25T12:40:28;1.25;;;0.70;;
59109;SDS011;44895;47.438;18.978;2023-04-25T12:43:32;3.20;;;1.02;;
59109;SDS011;44895;47.438;18.978;2023-04-25T12:46:36;3.10;;;1.38;;
59109;SDS011;44895;47.438;18.978;2023-04-25T12:49:40;2.20;;;0.90;;
59109;SDS011;44895;47.438;18.978;2023-04-25T12:52:44;2.05;;;0.90;;
59109;SDS011;44895;47.438;18.978;2023-04-25T12:55:48;6.63;;;1.88;;
59109;SDS011;44895;47.438;18.978;2023-04-25T12:58:52;3.10;;;1.45;;
59109;SDS011;44895;47.438;18.978;2023-04-25T13:01:55;4.13;;;1.05;;
59109;SDS011;44895;47.438;18.978;2023-04-25T13:05:00;1.85;;;0.70;;
59109;SDS011;44895;47.438;18.978;2023-04-25T13:08:03;1.33;;;0.63;;
59109;SDS011;44895;47.438;18.978;2023-04-25T13:11:07;3.22;;;1.30;;
59109;SDS011;44895;47.438;18.978;2023-04-25T13:14:12;3.80;;;1.00;;
59109;SDS011;44895;47.438;18.978;2023-04-25T13:17:16;2.80;;;1.00;;
59109;SDS011;44895;47.438;18.978;2023-04-25T13:20:19;3.83;;;1.30;;
59109;SDS011;44895;47.438;18.978;2023-04-25T13:23:27;2.90;;;1.30;;
59109;SDS011;44895;47.438;18.978;2023-04-25T13:26:31;6.53;;;1.90;;
59109;SDS011;44895;47.438;18.978;2023-04-25T13:29:35;2.00;;;1.05;;
59109;SDS011;44895;47.438;18.978;2023-04-25T13:32:40;3.95;;;1.38;;
59109;SDS011;44895;47.438;18.978;2023-04-25T13:35:44;4.13;;;1.30;;
59109;SDS011;44895;47.438;18.978;2023-04-25T13:38:56;2.28;;;0.93;;
59109;SDS011;44895;47.438;18.978;2023-04-25T13:42:00;2.83;;;1.20;;
59109;SDS011;44895;47.438;18.978;2023-04-25T13:45:05;1.92;;;0.85;;
59109;SDS011;44895;47.438;18.978;2023-04-25T13:48:09;1.98;;;0.82;;
59109;SDS011;44895;47.438;18.978;2023-04-25T13:51:13;2.58;;;1.10;;
59109;SDS011;44895;47.438;18.978;2023-04-25T13:54:18;2.95;;;1.52;;
59109;SDS011;44895;47.438;18.978;2023-04-25T13:57:22;3.75;;;1.52;;
59109;SDS011;44895;47.438;18.978;2023-04-25T14:00:26;5.00;;;1.85;;
59109;SDS011;44895;47.438;18.978;2023-04-25T14:03:30;3.90;;;1.30;;
59109;SDS011;44895;47.438;18.978;2023-04-25T14:06:34;4.10;;;1.58;;
59109;SDS011;44895;47.438;18.978;2023-04-25T14:09:38;3.35;;;1.13;;
59109;SDS011;44895;47.438;18.978;2023-04-25T14:12:42;8.05;;;2.13;;
59109;SDS011;44895;47.438;18.978;2023-04-25T14:15:46;4.82;;;1.58;;
59109;SDS011;44895;47.438;18.978;2023-04-25T14:18:50;4.18;;;1.45;;
59109;SDS011;44895;47.438;18.978;2023-04-25T14:21:53;3.65;;;1.40;;
59109;SDS011;44895;47.438;18.978;2023-04-25T14:24:57;5.38;;;1.35;;
59109;SDS011;44895;47.438;18.978;2023-04-25T14:28:01;3.08;;;1.20;;
59109;SDS011;44895;47.438;18.978;2023-04-25T14:31:05;4.05;;;1.10;;
59109;SDS011;44895;47.438;18.978;2023-04-25T14:34:08;4.90;;;1.98;;
59109;SDS011;44895;47.438;18.978;2023-04-25T14:37:12;5.20;;;1.40;;
59109;SDS011;44895;47.438;18.978;2023-04-25T14:40:16;2.17;;;1.10;;
59109;SDS011;44895;47.438;18.978;2023-04-25T14:43:20;5.47;;;1.60;;
59109;SDS011;44895;47.438;18.978;2023-04-25T14:46:24;3.25;;;1.20;;
59109;SDS011;44895;47.438;18.978;2023-04-25T14:49:28;3.67;;;1.58;;
59109;SDS011;44895;47.438;18.978;2023-04-25T14:52:32;2.75;;;1.20;;
59109;SDS011;44895;47.438;18.978;2023-04-25T14:55:36;4.00;;;1.75;;
59109;SDS011;44895;47.438;18.978;2023-04-25T14:58:40;16.02;;;5.85;;
59109;SDS011;44895;47.438;18.978;2023-04-25T15:01:43;5.05;;;1.70;;
59109;SDS011;44895;47.438;18.978;2023-04-25T15:04:47;4.82;;;2.00;;
59109;SDS011;44895;47.438;18.978;2023-04-25T15:07:51;6.10;;;2.00;;
59109;SDS011;44895;47.438;18.978;2023-04-25T15:10:55;6.32;;;2.67;;
59109;SDS011;44895;47.438;18.978;2023-04-25T15:13:59;2.85;;;1.65;;
59109;SDS011;44895;47.438;18.978;2023-04-25T15:17:03;3.33;;;1.20;;
59109;SDS011;44895;47.438;18.978;2023-04-25T15:20:07;3.58;;;1.40;;
59109;SDS011;44895;47.438;18.978;2023-04-25T15:23:16;4.55;;;2.03;;
59109;SDS011;44895;47.438;18.978;2023-04-25T15:26:21;2.67;;;1.27;;
59109;SDS011;44895;47.438;18.978;2023-04-25T15:29:24;3.35;;;1.38;;
59109;SDS011;44895;47.438;18.978;2023-04-25T15:32:29;2.65;;;1.05;;
59109;SDS011;44895;47.438;18.978;2023-04-25T15:35:33;4.78;;;1.63;;
59109;SDS011;44895;47.438;18.978;2023-04-25T15:38:37;2.63;;;1.15;;
59109;SDS011;44895;47.438;18.978;2023-04-25T15:41:41;4.10;;;1.15;;
59109;SDS011;44895;47.438;18.978;2023-04-25T15:44:44;2.35;;;1.15;;
59109;SDS011;44895;47.438;18.978;2023-04-25T15:47:48;2.67;;;1.33;;
59109;SDS011;44895;47.438;18.978;2023-04-25T15:50:53;5.70;;;1.77;;
59109;SDS011;44895;47.438;18.978;2023-04-25T15:53:57;6.65;;;2.38;;
59109;SDS011;44895;47.438;18.978;2023-04-25T15:57:01;4.88;;;2.28;;
59109;SDS011;44895;47.438;18.978;2023-04-25T16:00:05;5.03;;;2.35;;
59109;SDS011;44895;47.438;18.978;2023-04-25T16:03:15;6.07;;;3.13;;
59109;SDS011;44895;47.438;18.978;2023-04-25T16:06:18;3.83;;;1.60;;
59109;SDS011;44895;47.438;18.978;2023-04-25T16:09:22;5.95;;;2.22;;
59109;SDS011;44895;47.438;18.978;2023-04-25T16:12:26;4.35;;;1.67;;
59109;SDS011;44895;47.438;18.978;2023-04-25T16:15:31;3.30;;;1.65;;
59109;SDS011;44895;47.438;18.978;2023-04-25T16:18:34;4.50;;;1.20;;
59109;SDS011;44895;47.438;18.978;2023-04-25T16:21:38;5.30;;;1.88;;
59109;SDS011;44895;47.438;18.978;2023-04-25T16:24:42;4.68;;;1.85;;
59109;SDS011;44895;47.438;18.978;2023-04-25T16:27:47;4.38;;;1.50;;
59109;SDS011;44895;47.438;18.978;2023-04-25T16:30:50;3.47;;;1.67;;
59109;SDS011;44895;47.438;18.978;2023-04-25T16:33:54;5.00;;;1.45;;
59109;SDS011;44895;47.438;18.978;2023-04-25T16:36:57;2.92;;;1.50;;
59109;SDS011;44895;47.438;18.978;2023-04-25T16:40:02;2.83;;;1.45;;
59109;SDS011;44895;47.438;18.978;2023-04-25T16:43:06;3.97;;;1.60;;
59109;SDS011;44895;47.438;18.978;2023-04-25T16:46:11;6.88;;;1.92;;
59109;SDS011;44895;47.438;18.978;2023-04-25T16:49:14;6.20;;;5.43;;
59109;SDS011;44895;47.438;18.978;2023-04-25T16:52:18;5.68;;;2.05;;
59109;SDS011;44895;47.438;18.978;2023-04-25T16:55:24;5.07;;;2.22;;
59109;SDS011;44895;47.438;18.978;2023-04-25T16:58:27;5.00;;;2.05;;
59109;SDS011;44895;47.438;18.978;2023-04-25T17:01:31;5.10;;;2.17;;
59109;SDS011;44895;47.438;18.978;2023-04-25T17:04:35;5.00;;;2.08;;
59109;SDS011;44895;47.438;18.978;2023-04-25T17:07:39;6.00;;;2.03;;
59109;SDS011;44895;47.438;18.978;2023-04-25T17:10:43;4.53;;;1.65;;
59109;SDS011;44895;47.438;18.978;2023-04-25T17:13:46;8.20;;;2.45;;
59109;SDS011;44895;47.438;18.978;2023-04-25T17:16:50;3.97;;;1.70;;
59109;SDS011;44895;47.438;18.978;2023-04-25T17:19:54;4.90;;;2.13;;
59109;SDS011;44895;47.438;18.978;2023-04-25T17:22:57;4.70;;;1.92;;
59109;SDS011;44895;47.438;18.978;2023-04-25T17:26:03;6.07;;;2.08;;
59109;SDS011;44895;47.438;18.978;2023-04-25T17:29:07;4.40;;;2.17;;
59109;SDS011;44895;47.438;18.978;2023-04-25T17:32:11;5.40;;;2.33;;
59109;SDS011;44895;47.438;18.978;2023-04-25T17:35:15;7.60;;;2.13;;
59109;SDS011;44895;47.438;18.978;2023-04-25T17:38:19;4.85;;;2.10;;
59109;SDS011;44895;47.438;18.978;2023-04-25T17:41:22;7.80;;;4.25;;
59109;SDS011;44895;47.438;18.978;2023-04-25T17:44:26;6.78;;;3.42;;
59109;SDS011;44895;47.438;18.978;2023-04-25T17:47:30;4.70;;;2.28;;
59109;SDS011;44895;47.438;18.978;2023-04-25T17:50:34;5.93;;;2.63;;
59109;SDS011;44895;47.438;18.978;2023-04-25T17:53:38;8.00;;;3.42;;
59109;SDS011;44895;47.438;18.978;2023-04-25T17:56:42;8.68;;;3.35;;
59109;SDS011;44895;47.438;18.978;2023-04-25T17:59:47;7.35;;;3.50;;
59109;SDS011;44895;47.438;18.978;2023-04-25T18:02:51;9.52;;;3.08;;
59109;SDS011;44895;47.438;18.978;2023-04-25T18:05:55;7.18;;;3.13;;
59109;SDS011;44895;47.438;18.978;2023-04-25T18:08:59;9.10;;;4.05;;
59109;SDS011;44895;47.438;18.978;2023-04-25T18:12:05;7.93;;;4.32;;
59109;SDS011;44895;47.438;18.978;2023-04-25T18:15:10;8.32;;;3.83;;
59109;SDS011;44895;47.438;18.978;2023-04-25T18:18:14;8.30;;;4.40;;
59109;SDS011;44895;47.438;18.978;2023-04-25T18:21:22;8.07;;;4.15;;
59109;SDS011;44895;47.438;18.978;2023-04-25T18:24:26;7.43;;;3.88;;
59109;SDS011;44895;47.438;18.978;2023-04-25T18:27:30;7.75;;;4.35;;
59109;SDS011;44895;47.438;18.978;2023-04-25T18:30:34;7.93;;;3.15;;